createdAt,value
2023-04-16T00:01:34.747Z,96034.47
2023-04-16T00:04:02.378Z,96030.13
2023-04-16T00:06:29.632Z,96026.59
2023-04-16T00:08:56.392Z,96029.28
2023-04-16T00:11:22.854Z,96026.59
2023-04-16T00:13:49.441Z,96026.72
2023-04-16T00:16:16.050Z,96021.38
2023-04-16T00:18:42.565Z,96024.06
2023-04-16T00:21:09.066Z,96022.22
2023-04-16T00:23:35.739Z,96019.69
2023-04-16T00:26:02.346Z,96016.19
2023-04-16T00:28:28.845Z,96018.00
2023-04-16T00:30:55.718Z,96018.00
2023-04-16T00:33:22.448Z,96013.63
2023-04-16T00:35:49.055Z,96012.66
2023-04-16T00:38:15.815Z,96017.13
2023-04-16T00:40:42.339Z,96019.94
2023-04-16T00:43:08.851Z,96013.75
2023-04-16T00:45:39.655Z,96012.91
2023-04-16T00:48:06.321Z,96015.56
2023-04-16T00:50:33.154Z,96013.03
2023-04-16T00:52:59.705Z,96013.03
2023-04-16T00:55:26.161Z,96008.56
2023-04-16T00:57:53.078Z,96015.69
2023-04-16T01:00:20.324Z,96010.34
2023-04-16T01:02:46.937Z,96014.84
2023-04-16T01:05:13.955Z,96013.16
2023-04-16T01:07:40.407Z,96014.97
2023-04-16T01:10:07.160Z,95998.13
2023-04-16T01:12:34.235Z,96005.28
2023-04-16T01:15:00.853Z,96000.06
2023-04-16T01:17:27.346Z,95998.25
2023-04-16T01:19:53.855Z,95998.25
2023-04-16T01:22:20.615Z,95995.59
2023-04-16T01:24:47.097Z,95993.91
2023-04-16T01:27:13.630Z,96005.41
2023-04-16T01:29:40.075Z,96008.06
2023-04-16T01:32:07.160Z,96017.91
2023-04-16T01:34:36.331Z,96021.63
2023-04-16T01:37:03.601Z,96028.06
2023-04-16T01:39:30.401Z,96024.69
2023-04-16T01:41:57.680Z,96028.06
2023-04-16T01:44:24.274Z,96038.50
2023-04-16T01:46:50.836Z,96044.44
2023-04-16T01:49:17.348Z,96044.06
2023-04-16T01:51:43.986Z,96059.78
2023-04-16T01:54:10.552Z,96065.63
2023-04-16T01:56:37.112Z,96066.22
2023-04-16T01:59:03.607Z,96066.72
2023-04-16T02:01:36.279Z,96076.75
2023-04-16T02:04:03.380Z,96076.28
2023-04-16T02:06:30.576Z,96090.81
2023-04-16T02:08:57.108Z,96086.81
2023-04-16T02:11:25.395Z,96091.63
2023-04-16T02:13:52.630Z,96090.19
2023-04-16T02:16:19.780Z,96093.19
2023-04-16T02:18:51.123Z,96093.41
2023-04-16T02:21:20.271Z,96098.25
2023-04-16T02:23:51.375Z,96095.19
2023-04-16T02:26:21.244Z,96103.56
2023-04-16T02:28:48.967Z,96100.38
2023-04-16T02:31:19.453Z,96114.09
2023-04-16T02:33:47.562Z,96115.53
2023-04-16T02:36:14.829Z,96119.50
2023-04-16T02:38:41.321Z,96126.16
2023-04-16T02:41:08.355Z,96119.47
2023-04-16T02:43:34.855Z,96126.97
2023-04-16T02:46:02.123Z,96126.72
2023-04-16T02:48:28.701Z,96133.38
2023-04-16T02:50:55.329Z,96136.59
2023-04-16T02:53:21.827Z,96138.78
2023-04-16T02:55:52.796Z,96137.38
2023-04-16T02:58:19.991Z,96151.22
2023-04-16T03:00:46.498Z,96157.16
2023-04-16T03:03:13.340Z,96159.44
2023-04-16T03:05:40.486Z,96156.50
2023-04-16T03:08:07.151Z,96154.31
2023-04-16T03:10:35.402Z,96158.44
2023-04-16T03:13:02.134Z,96150.97
2023-04-16T03:15:28.735Z,96162.25
2023-04-16T03:17:56.009Z,96167.22
2023-04-16T03:20:22.553Z,96166.13
2023-04-16T03:22:49.129Z,96163.19
2023-04-16T03:25:15.754Z,96165.69
2023-04-16T03:27:42.355Z,96168.13
2023-04-16T03:30:13.705Z,96168.84
2023-04-16T03:32:40.602Z,96173.94
2023-04-16T03:35:07.492Z,96170.13
2023-04-16T03:37:34.274Z,96178.88
2023-04-16T03:40:01.017Z,96181.44
2023-04-16T03:42:27.561Z,96173.25
2023-04-16T03:44:54.025Z,96175.91
2023-04-16T03:47:21.918Z,96180.19
2023-04-16T03:49:49.871Z,96175.66
2023-04-16T03:52:17.484Z,96172.88
2023-04-16T03:54:43.984Z,96185.13
2023-04-16T03:57:22.021Z,96173.69
2023-04-16T03:59:48.690Z,96176.38
2023-04-16T04:02:17.352Z,96168.34
2023-04-16T04:04:44.147Z,96162.28
2023-04-16T04:07:10.773Z,96158.91
2023-04-16T04:09:37.522Z,96163.53
2023-04-16T04:12:04.065Z,96159.16
2023-04-16T04:14:32.793Z,96159.03
2023-04-16T04:16:59.550Z,96166.34
2023-04-16T04:19:26.248Z,96173.53
2023-04-16T04:21:53.119Z,96176.06
2023-04-16T04:24:19.705Z,96179.59
2023-04-16T04:26:46.263Z,96177.75
2023-04-16T04:29:14.199Z,96182.25
2023-04-16T04:31:40.904Z,96183.22
2023-04-16T04:34:07.752Z,96187.03
2023-04-16T04:36:34.549Z,96179.13
2023-04-16T04:39:01.324Z,96180.13
2023-04-16T04:41:28.048Z,96185.47
2023-04-16T04:43:54.632Z,96183.06
2023-04-16T04:46:21.255Z,96183.06
2023-04-16T04:48:48.057Z,96185.84
2023-04-16T04:51:16.413Z,96182.63
2023-04-16T04:53:45.610Z,96181.91
2023-04-16T04:56:13.085Z,96180.72
2023-04-16T04:58:41.053Z,96182.09
2023-04-16T05:01:07.585Z,96179.53
2023-04-16T05:03:34.154Z,96183.22
2023-04-16T05:06:00.957Z,96186.84
2023-04-16T05:08:27.514Z,96186.84
2023-04-16T05:10:53.961Z,96184.31
2023-04-16T05:13:20.480Z,96184.47
2023-04-16T05:15:46.933Z,96190.53
2023-04-16T05:18:13.611Z,96192.19
2023-04-16T05:20:40.121Z,96201.06
2023-04-16T05:23:06.641Z,96204.59
2023-04-16T05:25:33.170Z,96203.59
2023-04-16T05:27:59.790Z,96207.13
2023-04-16T05:30:26.233Z,96232.84
2023-04-16T05:32:52.938Z,96234.00
2023-04-16T05:35:19.516Z,96242.38
2023-04-16T05:37:46.024Z,96243.78
2023-04-16T05:40:13.332Z,96251.81
2023-04-16T05:42:39.878Z,96215.09
2023-04-16T05:45:06.606Z,96193.59
2023-04-16T05:47:33.172Z,96181.09
2023-04-16T05:49:59.679Z,96167.84
2023-04-16T05:52:26.179Z,96162.88
2023-04-16T05:54:52.676Z,96163.88
2023-04-16T05:57:19.165Z,96165.59
2023-04-16T05:59:45.716Z,96164.50
2023-04-16T06:02:12.404Z,96160.66
2023-04-16T06:04:38.912Z,96170.72
2023-04-16T06:07:05.506Z,96180.69
2023-04-16T06:09:31.955Z,96179.94
2023-04-16T06:11:58.552Z,96185.28
2023-04-16T06:14:25.006Z,96187.97
2023-04-16T06:16:51.591Z,96194.13
2023-04-16T06:19:18.066Z,96196.78
2023-04-16T06:21:44.629Z,96195.13
2023-04-16T06:24:11.193Z,96194.25
2023-04-16T06:26:37.754Z,96200.44
2023-04-16T06:29:04.216Z,96195.97
2023-04-16T06:31:31.070Z,96196.91
2023-04-16T06:33:57.682Z,96195.97
2023-04-16T06:36:24.199Z,96199.47
2023-04-16T06:38:50.805Z,96214.53
2023-04-16T06:41:17.383Z,96220.59
2023-04-16T06:43:43.909Z,96216.09
2023-04-16T06:46:10.398Z,96219.59
2023-04-16T06:48:36.872Z,96224.81
2023-04-16T06:51:03.517Z,96215.47
2023-04-16T06:53:29.978Z,96207.69
2023-04-16T06:55:56.480Z,96218.38
2023-04-16T06:58:23.000Z,96222.88
2023-04-16T07:00:49.533Z,96222.13
2023-04-16T07:03:16.232Z,96219.84
2023-04-16T07:05:42.857Z,96221.91
2023-04-16T07:08:09.444Z,96220.06
2023-04-16T07:10:35.949Z,96239.38
2023-04-16T07:13:02.481Z,96228.91
2023-04-16T07:15:28.974Z,96223.91
2023-04-16T07:17:55.669Z,96223.31
2023-04-16T07:20:22.462Z,96233.03
2023-04-16T07:22:49.001Z,96236.41
2023-04-16T07:25:15.550Z,96244.09
2023-04-16T07:27:42.008Z,96249.91
2023-04-16T07:30:09.197Z,96241.53
2023-04-16T07:32:36.075Z,96253.56
2023-04-16T07:35:03.786Z,96256.84
2023-04-16T07:37:30.865Z,96253.94
2023-04-16T07:39:57.784Z,96266.91
2023-04-16T07:42:24.268Z,96259.63
2023-04-16T07:44:50.823Z,96263.03
2023-04-16T07:47:17.413Z,96266.41
2023-04-16T07:49:44.077Z,96265.31
2023-04-16T07:52:10.538Z,96269.69
2023-04-16T07:54:37.116Z,96271.38
2023-04-16T07:57:03.562Z,96270.41
2023-04-16T07:59:30.422Z,96273.81
2023-04-16T08:01:57.037Z,96270.91
2023-04-16T08:04:25.755Z,96271.88
2023-04-16T08:06:52.853Z,96271.88
2023-04-16T08:09:20.137Z,96272.00
2023-04-16T08:11:46.594Z,96275.38
2023-04-16T08:14:16.077Z,96279.78
2023-04-16T08:16:42.633Z,96287.78
2023-04-16T08:19:09.284Z,96287.50
2023-04-16T08:21:36.224Z,96296.25
2023-04-16T08:24:02.719Z,96305.97
2023-04-16T08:26:29.172Z,96305.84
2023-04-16T08:28:55.776Z,96303.91
2023-04-16T08:31:22.406Z,96299.41
2023-04-16T08:33:49.084Z,96309.97
2023-04-16T08:36:15.650Z,96311.66
2023-04-16T08:38:42.175Z,96313.25
2023-04-16T08:41:09.505Z,96315.06
2023-04-16T08:43:37.244Z,96315.78
2023-04-16T08:46:03.881Z,96317.50
2023-04-16T08:48:32.183Z,96315.56
2023-04-16T08:50:58.638Z,96318.09
2023-04-16T08:53:26.628Z,96317.13
2023-04-16T08:55:53.174Z,96315.44
2023-04-16T08:58:20.031Z,96319.78
2023-04-16T09:00:46.633Z,96321.53
2023-04-16T09:03:13.373Z,96317.88
2023-04-16T09:05:40.083Z,96329.53
2023-04-16T09:08:06.756Z,96324.94
2023-04-16T09:10:33.466Z,96329.53
2023-04-16T09:12:59.979Z,96320.78
2023-04-16T09:15:26.557Z,96320.06
2023-04-16T09:17:53.322Z,96326.47
2023-04-16T09:20:20.039Z,96318.72
2023-04-16T09:22:46.739Z,96316.41
2023-04-16T09:25:13.271Z,96310.59
2023-04-16T09:27:39.852Z,96310.81
2023-04-16T09:30:22.284Z,96319.94
2023-04-16T09:32:49.260Z,96322.72
2023-04-16T09:35:16.833Z,96316.63
2023-04-16T09:37:43.370Z,96320.41
2023-04-16T09:40:09.867Z,96317.00
2023-04-16T09:42:39.619Z,96310.94
2023-04-16T09:45:06.492Z,96318.13
2023-04-16T09:47:40.949Z,96313.00
2023-04-16T09:50:11.181Z,96304.50
2023-04-16T09:52:38.858Z,96307.53
2023-04-16T09:55:05.504Z,96302.31
2023-04-16T09:57:32.151Z,96305.81
2023-04-16T10:00:02.624Z,96311.31
2023-04-16T10:02:31.382Z,96309.59
2023-04-16T10:04:58.331Z,96307.03
2023-04-16T10:07:27.821Z,96308.03
2023-04-16T10:09:54.330Z,96309.84
2023-04-16T10:12:20.832Z,96311.75
2023-04-16T10:14:49.513Z,96310.91
2023-04-16T10:17:16.774Z,96312.84
2023-04-16T10:19:43.321Z,96310.28
2023-04-16T10:22:09.841Z,96307.78
2023-04-16T10:24:36.296Z,96314.06
2023-04-16T10:27:02.977Z,96306.28
2023-04-16T10:29:30.795Z,96308.09
2023-04-16T10:31:57.673Z,96315.38
2023-04-16T10:34:24.758Z,96318.03
2023-04-16T10:36:52.941Z,96319.94
2023-04-16T10:39:20.551Z,96322.63
2023-04-16T10:41:47.121Z,96327.22
2023-04-16T10:44:13.771Z,96321.03
2023-04-16T10:46:41.486Z,96324.66
2023-04-16T10:49:13.865Z,96323.94
2023-04-16T10:51:40.622Z,96319.59
2023-04-16T10:54:11.679Z,96319.69
2023-04-16T10:56:38.312Z,96325.13
2023-04-16T10:59:05.962Z,96324.19
2023-04-16T11:01:36.329Z,96326.13
2023-04-16T11:04:21.562Z,96330.59
2023-04-16T11:07:03.559Z,96319.31
2023-04-16T11:09:42.438Z,96320.28
2023-04-16T11:12:09.312Z,96317.72
2023-04-16T11:14:35.764Z,96315.06
2023-04-16T11:17:03.552Z,96317.00
2023-04-16T11:19:30.000Z,96317.97
2023-04-16T11:21:56.521Z,96318.94
2023-04-16T11:24:24.633Z,96319.91
2023-04-16T11:26:52.741Z,96319.03
2023-04-16T11:29:19.207Z,96324.50
2023-04-16T11:31:52.011Z,96321.94
2023-04-16T11:34:18.835Z,96322.91
2023-04-16T11:36:46.048Z,96330.06
2023-04-16T11:39:12.805Z,96320.34
2023-04-16T11:41:46.131Z,96326.66
2023-04-16T11:44:25.429Z,96332.94
2023-04-16T11:46:52.398Z,96333.94
2023-04-16T11:49:29.295Z,96326.88
2023-04-16T11:51:56.157Z,96335.03
2023-04-16T11:54:23.092Z,96335.13
2023-04-16T11:56:50.709Z,96333.41
2023-04-16T11:59:18.194Z,96330.84
2023-04-16T12:01:49.147Z,96331.00
2023-04-16T12:04:16.511Z,96337.16
2023-04-16T12:07:12.574Z,96334.59
2023-04-16T12:09:40.934Z,96332.94
2023-04-16T12:12:24.934Z,96337.38
2023-04-16T12:14:51.448Z,96326.84
2023-04-16T12:17:19.067Z,96324.31
2023-04-16T12:19:49.436Z,96334.09
2023-04-16T12:22:16.046Z,96335.91
2023-04-16T12:24:42.562Z,96340.41
2023-04-16T12:27:09.020Z,96337.84
2023-04-16T12:29:35.553Z,96336.16
2023-04-16T12:32:02.833Z,96341.59
2023-04-16T12:34:48.468Z,96341.59
2023-04-16T12:37:15.926Z,96343.41
2023-04-16T12:39:42.585Z,96340.97
2023-04-16T12:42:11.248Z,96344.47
2023-04-16T12:44:38.077Z,96347.16
2023-04-16T12:47:05.510Z,96340.13
2023-04-16T12:49:32.075Z,96347.25
2023-04-16T12:51:58.605Z,96349.06
2023-04-16T12:54:28.827Z,96365.06
2023-04-16T12:56:55.300Z,96356.22
2023-04-16T12:59:21.821Z,96354.50
2023-04-16T13:01:48.346Z,96352.72
2023-04-16T13:04:15.168Z,96348.34
2023-04-16T13:06:41.733Z,96350.16
2023-04-16T13:09:08.399Z,96354.66
2023-04-16T13:11:35.037Z,96356.34
2023-04-16T13:14:01.630Z,96354.66
2023-04-16T13:16:28.223Z,96351.84
2023-04-16T13:18:54.838Z,96352.72
2023-04-16T13:21:21.484Z,96346.50
2023-04-16T13:23:47.987Z,96347.38
2023-04-16T13:26:15.808Z,96350.06
2023-04-16T13:28:42.289Z,96351.84
2023-04-16T13:31:08.830Z,96344.72
2023-04-16T13:33:35.463Z,96345.56
2023-04-16T13:36:01.989Z,96344.84
2023-04-16T13:38:28.460Z,96331.50
2023-04-16T13:40:55.095Z,96332.44
2023-04-16T13:43:22.440Z,96342.28
2023-04-16T13:45:48.951Z,96335.25
2023-04-16T13:48:15.513Z,96358.50
2023-04-16T13:50:42.713Z,96345.50
2023-04-16T13:53:09.180Z,96344.88
2023-04-16T13:55:35.831Z,96338.16
2023-04-16T13:58:02.444Z,96336.81
2023-04-16T14:00:28.988Z,96345.22
2023-04-16T14:02:55.641Z,96343.75
2023-04-16T14:05:25.178Z,96356.56
2023-04-16T14:07:53.171Z,96352.44
2023-04-16T14:10:19.704Z,96356.38
2023-04-16T14:12:46.267Z,96355.75
2023-04-16T14:15:14.700Z,96363.00
2023-04-16T14:17:42.774Z,96363.94
2023-04-16T14:20:10.532Z,96365.97
2023-04-16T14:22:37.018Z,96370.44
2023-04-16T14:25:03.739Z,96366.09
2023-04-16T14:27:30.245Z,96371.41
2023-04-16T14:29:56.695Z,96370.69
2023-04-16T14:32:23.239Z,96369.94
2023-04-16T14:34:49.791Z,96368.22
2023-04-16T14:37:17.272Z,96378.03
2023-04-16T14:39:43.764Z,96374.63
2023-04-16T14:42:10.756Z,96376.41
2023-04-16T14:44:37.360Z,96373.88
2023-04-16T14:47:03.875Z,96380.16
2023-04-16T14:49:30.336Z,96382.91
2023-04-16T14:51:57.027Z,96382.91
2023-04-16T14:54:23.541Z,96383.03
2023-04-16T14:56:50.508Z,96380.38
2023-04-16T14:59:16.963Z,96384.97
2023-04-16T15:01:43.548Z,96386.75
2023-04-16T15:04:10.365Z,96383.25
2023-04-16T15:06:38.194Z,96383.25
2023-04-16T15:09:04.944Z,96389.50
2023-04-16T15:11:31.489Z,96400.16
2023-04-16T15:13:58.065Z,96394.09
2023-04-16T15:16:24.683Z,96396.00
2023-04-16T15:18:51.366Z,96390.59
2023-04-16T15:21:17.850Z,96392.41
2023-04-16T15:23:44.329Z,96395.16
2023-04-16T15:26:11.070Z,96394.31
2023-04-16T15:28:37.675Z,96396.16
2023-04-16T15:31:04.266Z,96388.25
2023-04-16T15:33:31.131Z,96392.75
2023-04-16T15:35:57.680Z,96394.53
2023-04-16T15:38:24.133Z,96397.28
2023-04-16T15:40:50.942Z,96396.50
2023-04-16T15:43:17.535Z,96402.72
2023-04-16T15:45:44.047Z,96397.69
2023-04-16T15:48:10.677Z,96397.81
2023-04-16T15:50:37.211Z,96400.59
2023-04-16T15:53:03.701Z,96404.19
2023-04-16T15:55:30.443Z,96406.00
2023-04-16T15:57:57.040Z,96403.34
2023-04-16T16:00:23.926Z,96404.28
2023-04-16T16:02:50.573Z,96413.97
2023-04-16T16:05:17.255Z,96412.16
2023-04-16T16:07:43.766Z,96414.81
2023-04-16T16:10:10.643Z,96421.97
2023-04-16T16:12:37.472Z,96416.66
2023-04-16T16:15:04.662Z,96423.66
2023-04-16T16:17:31.227Z,96415.81
2023-04-16T16:19:58.240Z,96419.31
2023-04-16T16:22:24.691Z,96423.66
2023-04-16T16:24:51.432Z,96424.53
2023-04-16T16:27:18.339Z,96420.16
2023-04-16T16:29:44.815Z,96421.88
2023-04-16T16:32:12.450Z,96428.97
2023-04-16T16:34:39.049Z,96428.13
2023-04-16T16:37:05.750Z,96421.97
2023-04-16T16:39:32.612Z,96426.44
2023-04-16T16:41:59.061Z,96428.22
2023-04-16T16:44:27.068Z,96429.09
2023-04-16T16:46:53.995Z,96428.22
2023-04-16T16:49:20.674Z,96430.88
2023-04-16T16:51:47.347Z,96425.69
2023-04-16T16:54:13.890Z,96427.47
2023-04-16T16:56:40.347Z,96428.47
2023-04-16T16:59:07.695Z,96442.59
2023-04-16T17:01:34.392Z,96457.94
2023-04-16T17:04:01.208Z,96461.59
2023-04-16T17:06:27.803Z,96476.72
2023-04-16T17:08:54.368Z,96476.94
2023-04-16T17:11:20.900Z,96482.56
2023-04-16T17:13:47.449Z,96493.66
2023-04-16T17:16:15.407Z,96494.09
2023-04-16T17:18:42.090Z,96505.28
2023-04-16T17:21:08.555Z,96504.94
2023-04-16T17:23:35.028Z,96503.75
2023-04-16T17:26:01.721Z,96508.78
2023-04-16T17:28:28.199Z,96510.38
2023-04-16T17:30:56.147Z,96513.69
2023-04-16T17:33:22.647Z,96517.97
2023-04-16T17:35:49.126Z,96519.69
2023-04-16T17:38:16.042Z,96518.81
2023-04-16T17:40:42.479Z,96515.19
2023-04-16T17:43:09.044Z,96520.53
2023-04-16T17:45:35.657Z,96522.09
2023-04-16T17:48:02.440Z,96523.72
2023-04-16T17:50:29.049Z,96526.25
2023-04-16T17:52:55.566Z,96534.03
2023-04-16T17:55:22.016Z,96526.78
2023-04-16T17:57:48.465Z,96535.44
2023-04-16T18:00:16.057Z,96532.66
2023-04-16T18:02:42.790Z,96545.84
2023-04-16T18:05:09.522Z,96533.41
2023-04-16T18:07:37.460Z,96540.41
2023-04-16T18:10:04.019Z,96536.81
2023-04-16T18:12:30.748Z,96544.66
2023-04-16T18:14:57.292Z,96543.72
2023-04-16T18:17:23.887Z,96544.56
2023-04-16T18:19:50.388Z,96548.94
2023-04-16T18:22:16.918Z,96548.09
2023-04-16T18:24:43.432Z,96552.47
2023-04-16T18:27:09.919Z,96547.13
2023-04-16T18:29:38.884Z,96556.84
2023-04-16T18:32:06.616Z,96560.34
2023-04-16T18:34:33.156Z,96559.38
2023-04-16T18:36:59.693Z,96563.88
2023-04-16T18:39:26.371Z,96570.03
2023-04-16T18:41:52.859Z,96571.88
2023-04-16T18:44:19.890Z,96566.44
2023-04-16T18:46:46.589Z,96567.38
2023-04-16T18:49:13.470Z,96577.09
2023-04-16T18:51:41.858Z,96581.44
2023-04-16T18:54:08.359Z,96579.66
2023-04-16T18:56:34.831Z,96586.78
2023-04-16T18:59:01.432Z,96587.66
2023-04-16T19:01:27.950Z,96592.09
2023-04-16T19:03:54.573Z,96592.09
2023-04-16T19:06:21.129Z,96594.66
2023-04-16T19:08:47.672Z,96590.19
2023-04-16T19:11:14.217Z,96596.50
2023-04-16T19:13:40.696Z,96598.31
2023-04-16T19:16:11.153Z,96597.44
2023-04-16T19:18:38.383Z,96599.25
2023-04-16T19:21:05.605Z,96598.31
2023-04-16T19:23:32.115Z,96605.44
2023-04-16T19:25:58.702Z,96601.94
2023-04-16T19:28:25.389Z,96601.94
2023-04-16T19:30:52.146Z,96605.44
2023-04-16T19:33:18.900Z,96604.59
2023-04-16T19:35:46.002Z,96603.75
2023-04-16T19:38:12.603Z,96593.09
2023-04-16T19:40:39.903Z,96600.25
2023-04-16T19:43:06.409Z,96599.38
2023-04-16T19:45:32.984Z,96606.41
2023-04-16T19:47:59.528Z,96595.84
2023-04-16T19:50:26.234Z,96606.41
2023-04-16T19:52:52.705Z,96601.19
2023-04-16T19:55:19.257Z,96599.38
2023-04-16T19:57:47.485Z,96601.19
2023-04-16T20:00:14.164Z,96604.69
2023-04-16T20:02:40.938Z,96600.34
2023-04-16T20:05:07.727Z,96601.19
2023-04-16T20:07:34.224Z,96608.34
2023-04-16T20:10:02.097Z,96611.00
2023-04-16T20:12:28.753Z,96603.09
2023-04-16T20:14:55.365Z,96603.94
2023-04-16T20:17:21.891Z,96604.09
2023-04-16T20:19:49.530Z,96607.59
2023-04-16T20:22:18.233Z,96604.09
2023-04-16T20:24:47.853Z,96603.22
2023-04-16T20:27:15.269Z,96603.22
2023-04-16T20:29:42.006Z,96607.69
2023-04-16T20:32:08.517Z,96608.66
2023-04-16T20:34:34.984Z,96605.97
2023-04-16T20:37:01.505Z,96602.47
2023-04-16T20:39:28.078Z,96599.91
2023-04-16T20:41:57.567Z,96599.81
2023-04-16T20:44:26.450Z,96594.56
2023-04-16T20:46:55.404Z,96592.88
2023-04-16T20:49:22.145Z,96593.72
2023-04-16T20:51:48.757Z,96594.72
2023-04-16T20:54:15.212Z,96595.56
2023-04-16T20:56:41.820Z,96585.84
2023-04-16T20:59:08.308Z,96585.84
2023-04-16T21:01:35.286Z,96592.13
2023-04-16T21:04:02.179Z,96583.31
2023-04-16T21:06:32.721Z,96583.31
2023-04-16T21:08:59.171Z,96593.09
2023-04-16T21:11:26.206Z,96583.31
2023-04-16T21:13:52.676Z,96582.44
2023-04-16T21:16:19.288Z,96578.06
2023-04-16T21:18:45.878Z,96581.69
2023-04-16T21:21:12.340Z,96582.56
2023-04-16T21:23:38.790Z,96578.16
2023-04-16T21:26:05.715Z,96580.84
2023-04-16T21:28:32.387Z,96577.31
2023-04-16T21:30:58.922Z,96588.94
2023-04-16T21:33:25.381Z,96584.44
2023-04-16T21:35:52.429Z,96574.75
2023-04-16T21:38:19.238Z,96594.25
2023-04-16T21:40:46.212Z,96592.56
2023-04-16T21:43:12.665Z,96593.41
2023-04-16T21:45:39.771Z,96596.09
2023-04-16T21:48:06.478Z,96594.38
2023-04-16T21:50:33.075Z,96592.69
2023-04-16T21:52:59.527Z,96595.34
2023-04-16T21:55:26.093Z,96589.16
2023-04-16T21:57:52.600Z,96595.44
2023-04-16T22:00:19.214Z,96590.13
2023-04-16T22:02:46.085Z,96588.44
2023-04-16T22:05:12.775Z,96593.75
2023-04-16T22:07:39.218Z,96586.59
2023-04-16T22:10:06.795Z,96584.88
2023-04-16T22:12:33.399Z,96579.56
2023-04-16T22:15:02.842Z,96589.38
2023-04-16T22:17:30.158Z,96583.19
2023-04-16T22:19:57.303Z,96583.19
2023-04-16T22:22:23.888Z,96583.28
2023-04-16T22:24:50.828Z,96572.63
2023-04-16T22:27:17.316Z,96572.63
2023-04-16T22:29:43.849Z,96570.06
2023-04-16T22:32:10.440Z,96573.63
2023-04-16T22:34:36.944Z,96566.56
2023-04-16T22:37:03.455Z,96570.94
2023-04-16T22:39:30.770Z,96568.38
2023-04-16T22:41:57.232Z,96574.56
2023-04-16T22:44:23.758Z,96568.38
2023-04-16T22:46:50.530Z,96569.34
2023-04-16T22:49:17.028Z,96565.81
2023-04-16T22:51:43.537Z,96571.16
2023-04-16T22:54:13.668Z,96566.75
2023-04-16T22:56:40.728Z,96564.97
2023-04-16T22:59:07.286Z,96565.91
2023-04-16T23:01:34.296Z,96566.91
2023-04-16T23:04:00.985Z,96569.56
2023-04-16T23:06:27.836Z,96569.56
2023-04-16T23:08:54.416Z,96563.34
2023-04-16T23:11:21.153Z,96572.22
2023-04-16T23:13:47.678Z,96567.84
2023-04-16T23:16:14.238Z,96567.06
2023-04-16T23:18:40.734Z,96567.91
2023-04-16T23:21:07.397Z,96567.91
2023-04-16T23:23:33.930Z,96562.59
2023-04-16T23:26:02.655Z,96563.56
2023-04-16T23:28:29.108Z,96564.41
